createdAt,value
2019-03-12T00:01:44.542Z,97033.00
2019-03-12T00:04:15.429Z,97031.89
2019-03-12T00:06:45.946Z,97027.33
2019-03-12T00:09:16.403Z,97022.13
2019-03-12T00:11:47.132Z,97030.36
2019-03-12T00:14:17.640Z,97027.56
2019-03-12T00:16:48.415Z,97029.70
2019-03-12T00:19:18.996Z,97038.06
2019-03-12T00:21:49.564Z,97044.21
2019-03-12T00:24:20.013Z,97051.18
2019-03-12T00:26:50.736Z,97050.84
2019-03-12T00:29:21.297Z,97061.05
2019-03-12T00:31:51.721Z,97065.48
2019-03-12T00:34:22.440Z,97056.94
2019-03-12T00:36:52.894Z,97061.37
2019-03-12T00:39:23.526Z,97069.23
2019-03-12T00:41:53.939Z,97067.80
2019-03-12T00:44:24.388Z,97068.50
2019-03-12T00:46:54.900Z,97067.34
2019-03-12T00:49:25.527Z,97080.67
2019-03-12T00:51:55.966Z,97087.27
2019-03-12T00:54:26.466Z,97085.72
2019-03-12T00:56:57.041Z,97080.07
2019-03-12T00:59:27.542Z,97091.06
2019-03-12T01:01:58.246Z,97091.00
2019-03-12T01:04:28.899Z,97095.72
2019-03-12T01:06:59.643Z,97102.68
2019-03-12T01:09:30.322Z,97107.44
2019-03-12T01:12:00.812Z,97106.13
2019-03-12T01:14:31.419Z,97107.09
2019-03-12T01:17:01.968Z,97107.55
2019-03-12T01:19:32.621Z,97104.21
2019-03-12T01:22:03.171Z,97104.21
2019-03-12T01:24:33.881Z,97098.73
2019-03-12T01:27:04.536Z,97105.91
2019-03-12T01:29:34.833Z,97109.91
2019-03-12T01:32:05.379Z,97109.50
2019-03-12T01:34:35.927Z,97109.69
2019-03-12T01:37:06.746Z,97117.36
2019-03-12T01:39:38.764Z,97120.84
2019-03-12T01:42:09.358Z,97129.10
2019-03-12T01:44:39.975Z,97124.86
2019-03-12T01:47:10.507Z,97135.77
2019-03-12T01:49:41.244Z,97140.69
2019-03-12T01:52:12.058Z,97142.44
2019-03-12T01:54:43.110Z,97142.95
2019-03-12T01:57:13.879Z,97136.15
2019-03-12T01:59:44.318Z,97140.80
2019-03-12T02:02:15.213Z,97144.91
2019-03-12T02:04:45.671Z,97156.13
2019-03-12T02:07:16.113Z,97159.94
2019-03-12T02:09:46.602Z,97159.02
2019-03-12T02:12:17.149Z,97149.00
2019-03-12T02:14:47.163Z,97156.70
2019-03-12T02:17:18.055Z,97154.63
2019-03-12T02:19:48.600Z,97148.62
2019-03-12T02:22:19.424Z,97156.08
2019-03-12T02:24:52.912Z,97145.38
2019-03-12T02:27:21.231Z,97151.30
2019-03-12T02:29:51.645Z,97158.89
2019-03-12T02:32:21.890Z,97155.96
2019-03-12T02:34:52.205Z,97161.34
2019-03-12T02:37:25.286Z,97168.44
2019-03-12T02:39:55.310Z,97164.81
2019-03-12T02:42:26.993Z,97164.31
2019-03-12T02:44:58.635Z,97161.96
2019-03-12T02:47:28.875Z,97162.76
2019-03-12T02:49:59.202Z,97165.70
2019-03-12T02:52:29.450Z,97160.84
2019-03-12T02:54:59.650Z,97168.73
2019-03-12T02:57:30.230Z,97173.79
2019-03-12T03:00:00.637Z,97174.46
2019-03-12T03:02:31.060Z,97176.30
2019-03-12T03:05:01.674Z,97177.94
2019-03-12T03:07:54.467Z,97182.61
2019-03-12T03:10:24.957Z,97187.22
2019-03-12T03:12:55.516Z,97180.91
2019-03-12T03:15:28.781Z,97198.75
2019-03-12T03:17:59.582Z,97196.19
2019-03-12T03:20:30.052Z,97194.13
2019-03-12T03:23:00.604Z,97204.78
2019-03-12T03:25:31.141Z,97206.09
2019-03-12T03:28:01.691Z,97197.16
2019-03-12T03:30:32.465Z,97205.63
2019-03-12T03:33:03.187Z,97211.72
2019-03-12T03:35:33.829Z,97208.55
2019-03-12T03:38:04.260Z,97212.16
2019-03-12T03:40:36.383Z,97212.27
2019-03-12T03:43:06.923Z,97209.16
2019-03-12T03:45:37.657Z,97216.55
2019-03-12T03:48:08.177Z,97208.64
2019-03-12T03:50:38.894Z,97217.02
2019-03-12T03:53:09.901Z,97215.33
2019-03-12T03:55:40.856Z,97213.94
2019-03-12T03:58:11.590Z,97223.07
2019-03-12T04:00:42.247Z,97225.86
2019-03-12T04:03:14.599Z,97220.91
2019-03-12T04:05:45.743Z,97225.86
2019-03-12T04:08:16.514Z,97242.33
2019-03-12T04:10:47.113Z,97247.50
2019-03-12T04:13:17.913Z,97247.38
2019-03-12T04:15:50.388Z,97256.44
2019-03-12T04:18:21.539Z,97256.51
2019-03-12T04:20:52.383Z,97257.28
2019-03-12T04:23:23.385Z,97257.06
2019-03-12T04:25:53.995Z,97252.01
2019-03-12T04:28:27.552Z,97255.66
2019-03-12T04:30:58.298Z,97266.02
2019-03-12T04:34:18.308Z,97259.50
2019-03-12T04:36:50.019Z,97262.98
2019-03-12T04:39:20.387Z,97274.45
2019-03-12T04:41:51.025Z,97283.08
2019-03-12T04:44:21.678Z,97285.98
2019-03-12T04:46:52.449Z,97284.56
2019-03-12T04:49:23.138Z,97281.40
2019-03-12T04:51:53.609Z,97283.71
2019-03-12T04:54:24.099Z,97291.60
2019-03-12T04:56:55.316Z,97293.63
2019-03-12T04:59:26.143Z,97299.61
2019-03-12T05:01:57.054Z,97316.27
2019-03-12T05:04:27.694Z,97325.22
2019-03-12T05:06:59.043Z,97322.61
2019-03-12T05:09:30.163Z,97321.84
2019-03-12T05:12:00.785Z,97325.70
2019-03-12T05:14:38.152Z,97327.14
2019-03-12T05:17:19.631Z,97328.89
2019-03-12T05:19:50.112Z,97338.51
2019-03-12T05:22:25.144Z,97344.01
2019-03-12T05:24:55.898Z,97348.02
2019-03-12T05:27:26.530Z,97358.55
2019-03-12T05:29:56.935Z,97363.34
2019-03-12T05:32:27.854Z,97360.57
2019-03-12T05:34:58.710Z,97353.03
2019-03-12T05:37:29.569Z,97356.08
2019-03-12T05:40:00.380Z,97369.52
2019-03-12T05:42:31.008Z,97370.82
2019-03-12T05:45:01.935Z,97387.38
2019-03-12T05:47:32.494Z,97388.50
2019-03-12T05:50:03.281Z,97401.25
2019-03-12T05:52:34.257Z,97401.63
2019-03-12T05:55:07.607Z,97397.62
2019-03-12T05:57:38.852Z,97411.30
2019-03-12T06:00:10.577Z,97411.25
2019-03-12T06:02:41.091Z,97423.17
2019-03-12T06:05:11.807Z,97429.05
2019-03-12T06:07:42.762Z,97439.44
2019-03-12T06:10:16.222Z,97441.92
2019-03-12T06:12:46.913Z,97449.62
2019-03-12T06:15:17.353Z,97453.23
2019-03-12T06:17:47.791Z,97451.88
2019-03-12T06:20:18.582Z,97460.83
2019-03-12T06:22:48.990Z,97468.27
2019-03-12T06:25:20.481Z,97475.44
2019-03-12T06:27:51.229Z,97476.39
2019-03-12T06:30:22.193Z,97487.99
2019-03-12T06:33:01.540Z,97497.77
2019-03-12T06:35:45.797Z,97497.95
2019-03-12T06:38:36.886Z,97501.07
2019-03-12T06:41:17.757Z,97508.98
2019-03-12T06:44:03.167Z,97508.37
2019-03-12T06:46:55.789Z,97516.73
2019-03-12T06:49:39.057Z,97528.77
2019-03-12T06:52:34.742Z,97531.29
2019-03-12T06:55:29.775Z,97529.55
2019-03-12T06:58:36.114Z,97529.06
2019-03-12T07:01:25.688Z,97532.37
2019-03-12T07:04:14.467Z,97530.44
2019-03-12T07:07:06.950Z,97546.41
2019-03-12T07:09:41.129Z,97549.41
2019-03-12T07:12:43.816Z,97545.00
2019-03-12T07:15:36.315Z,97549.17
2019-03-12T07:18:24.210Z,97543.10
2019-03-12T07:21:37.376Z,97544.59
2019-03-12T07:24:24.334Z,97540.06
2019-03-12T07:27:19.608Z,97544.64
2019-03-12T07:29:56.486Z,97544.37
2019-03-12T07:32:48.118Z,97552.38
2019-03-12T07:35:36.843Z,97551.08
2019-03-12T07:38:31.203Z,97556.12
2019-03-12T07:41:25.003Z,97553.93
2019-03-12T07:43:57.863Z,97548.94
2019-03-12T07:46:47.825Z,97547.39
2019-03-12T07:49:40.110Z,97553.27
2019-03-12T07:52:25.636Z,97545.88
2019-03-12T07:55:29.917Z,97540.08
2019-03-12T07:58:18.103Z,97531.67
2019-03-12T08:01:10.329Z,97537.33
2019-03-12T08:03:52.579Z,97540.23
2019-03-12T08:06:50.984Z,97538.73
2019-03-12T08:09:43.369Z,97535.54
2019-03-12T08:12:23.141Z,97538.97
2019-03-12T08:15:23.034Z,97531.48
2019-03-12T08:18:16.814Z,97539.17
2019-03-12T08:21:06.183Z,97539.89
2019-03-12T08:23:53.889Z,97548.38
2019-03-12T08:26:32.407Z,97541.94
2019-03-12T08:29:17.616Z,97553.87
2019-03-12T08:32:13.519Z,97551.41
2019-03-12T08:35:11.454Z,97551.84
2019-03-12T08:37:48.544Z,97551.36
2019-03-12T08:40:51.729Z,97553.15
2019-03-12T08:43:33.620Z,97560.33
2019-03-12T08:46:24.595Z,97559.66
2019-03-12T08:49:03.613Z,97564.00
2019-03-12T08:51:51.356Z,97562.06
2019-03-12T08:54:54.409Z,97565.97
2019-03-12T08:57:42.014Z,97563.14
2019-03-12T09:00:27.707Z,97567.50
2019-03-12T09:03:16.475Z,97560.37
2019-03-12T09:05:57.239Z,97569.42
2019-03-12T09:08:42.915Z,97558.16
2019-03-12T09:11:25.522Z,97560.64
2019-03-12T09:14:09.801Z,97565.44
2019-03-12T09:17:00.439Z,97561.58
2019-03-12T09:20:01.474Z,97562.27
2019-03-12T09:22:51.338Z,97562.62
2019-03-12T09:25:42.503Z,97560.98
2019-03-12T09:28:31.666Z,97548.94
2019-03-12T09:31:34.963Z,97556.73
2019-03-12T09:34:27.292Z,97573.95
2019-03-12T09:37:18.035Z,97573.74
2019-03-12T09:39:59.645Z,97569.01
2019-03-12T09:42:48.537Z,97564.82
2019-03-12T09:45:36.584Z,97575.27
2019-03-12T09:48:38.010Z,97572.65
2019-03-12T09:51:24.720Z,97577.78
2019-03-12T09:54:05.295Z,97581.41
2019-03-12T09:56:55.333Z,97584.02
2019-03-12T09:59:56.437Z,97591.38
2019-03-12T10:02:44.467Z,97586.86
2019-03-12T10:05:29.939Z,97595.92
2019-03-12T10:08:27.799Z,97593.86
2019-03-12T10:11:02.837Z,97593.45
2019-03-12T10:13:47.393Z,97593.55
2019-03-12T10:16:35.883Z,97599.41
2019-03-12T10:19:24.554Z,97599.17
2019-03-12T10:22:23.269Z,97605.02
2019-03-12T10:25:18.410Z,97604.73
2019-03-12T10:28:01.834Z,97605.00
2019-03-12T10:30:50.271Z,97605.92
2019-03-12T10:33:38.326Z,97602.22
2019-03-12T10:36:27.476Z,97608.84
2019-03-12T10:39:54.992Z,97623.67
2019-03-12T10:42:35.360Z,97628.55
2019-03-12T10:45:13.665Z,97623.73
2019-03-12T10:47:44.647Z,97617.69
2019-03-12T10:50:24.125Z,97612.05
2019-03-12T10:52:55.341Z,97620.05
2019-03-12T10:55:26.073Z,97618.73
2019-03-12T10:57:56.322Z,97612.83
2019-03-12T11:00:26.906Z,97612.28
2019-03-12T11:02:57.536Z,97614.06
2019-03-12T11:05:28.224Z,97617.23
2019-03-12T11:07:58.823Z,97621.93
2019-03-12T11:10:31.049Z,97626.67
2019-03-12T11:13:01.633Z,97616.04
2019-03-12T11:15:34.143Z,97614.58
2019-03-12T11:18:04.927Z,97620.46
2019-03-12T11:20:38.693Z,97622.25
2019-03-12T11:23:09.231Z,97626.02
2019-03-12T11:25:41.061Z,97620.46
2019-03-12T11:28:12.687Z,97616.33
2019-03-12T11:30:43.244Z,97624.39
2019-03-12T11:33:13.448Z,97628.34
2019-03-12T11:35:44.215Z,97631.59
2019-03-12T11:38:14.771Z,97635.83
2019-03-12T11:40:45.490Z,97635.63
2019-03-12T11:43:16.898Z,97637.11
2019-03-12T11:45:47.459Z,97627.36
2019-03-12T11:48:18.468Z,97630.00
2019-03-12T11:50:48.947Z,97631.59
2019-03-12T11:53:19.586Z,97634.86
2019-03-12T11:55:52.759Z,97632.77
2019-03-12T11:58:23.505Z,97643.41
2019-03-12T12:00:59.359Z,97647.13
2019-03-12T12:03:30.065Z,97653.02
2019-03-12T12:06:00.733Z,97652.08
2019-03-12T12:08:31.693Z,97664.15
2019-03-12T12:11:02.650Z,97659.50
2019-03-12T12:13:33.138Z,97665.69
2019-03-12T12:16:03.049Z,97666.91
2019-03-12T12:18:32.977Z,97659.08
2019-03-12T12:21:03.503Z,97651.18
2019-03-12T12:23:34.165Z,97653.82
2019-03-12T12:26:04.882Z,97659.08
2019-03-12T12:28:35.256Z,97655.63
2019-03-12T12:31:05.906Z,97643.68
2019-03-12T12:33:36.386Z,97644.51
2019-03-12T12:36:07.061Z,97651.05
2019-03-12T12:38:37.927Z,97649.12
2019-03-12T12:41:13.880Z,97651.20
2019-03-12T12:43:48.527Z,97649.68
2019-03-12T12:46:20.862Z,97654.70
2019-03-12T12:48:53.272Z,97646.94
2019-03-12T12:51:23.190Z,97648.37
2019-03-12T12:53:53.777Z,97657.52
2019-03-12T12:56:24.150Z,97664.36
2019-03-12T12:58:54.691Z,97664.96
2019-03-12T13:01:24.889Z,97679.47
2019-03-12T13:03:55.458Z,97680.70
2019-03-12T13:06:26.113Z,97690.94
2019-03-12T13:08:56.840Z,97682.73
2019-03-12T13:11:27.199Z,97677.37
2019-03-12T13:13:57.624Z,97679.60
2019-03-12T13:16:28.104Z,97690.34
2019-03-12T13:18:58.139Z,97693.97
2019-03-12T13:21:29.056Z,97693.72
2019-03-12T13:23:59.551Z,97697.53
2019-03-12T13:26:29.956Z,97703.25
2019-03-12T13:29:00.409Z,97705.39
2019-03-12T13:31:31.163Z,97717.80
2019-03-12T13:34:01.619Z,97718.03
2019-03-12T13:36:34.902Z,97718.06
2019-03-12T13:39:06.656Z,97722.61
2019-03-12T13:41:37.308Z,97725.73
2019-03-12T13:44:07.937Z,97725.86
2019-03-12T13:46:38.438Z,97730.64
2019-03-12T13:49:09.081Z,97718.27
2019-03-12T13:51:39.794Z,97727.86
2019-03-12T13:54:10.713Z,97720.00
2019-03-12T13:56:41.275Z,97718.19
2019-03-12T13:59:14.163Z,97711.74
2019-03-12T14:01:45.114Z,97714.35
2019-03-12T14:04:15.979Z,97711.97
2019-03-12T14:06:46.609Z,97718.79
2019-03-12T14:09:18.226Z,97719.48
2019-03-12T14:11:48.939Z,97720.16
2019-03-12T14:14:19.424Z,97722.44
2019-03-12T14:16:50.104Z,97731.23
2019-03-12T14:19:20.802Z,97741.45
2019-03-12T14:21:51.563Z,97743.56
2019-03-12T14:24:22.131Z,97753.64
2019-03-12T14:26:54.792Z,97752.00
2019-03-12T14:29:26.578Z,97751.57
2019-03-12T14:31:57.680Z,97744.28
2019-03-12T14:34:28.504Z,97746.12
2019-03-12T14:36:59.024Z,97742.74
2019-03-12T14:39:29.391Z,97748.20
2019-03-12T14:42:00.180Z,97741.02
2019-03-12T14:44:31.052Z,97739.62
2019-03-12T14:47:01.463Z,97731.36
2019-03-12T14:49:31.730Z,97734.53
2019-03-12T14:52:21.778Z,97736.51
2019-03-12T14:54:52.597Z,97747.30
2019-03-12T14:57:24.307Z,97749.25
2019-03-12T14:59:54.861Z,97770.39
2019-03-12T15:02:25.611Z,97783.28
2019-03-12T15:04:56.562Z,97788.80
2019-03-12T15:07:27.395Z,97791.09
2019-03-12T15:09:58.005Z,97779.08
2019-03-12T15:12:28.848Z,97776.66
2019-03-12T15:14:59.463Z,97784.48
2019-03-12T15:17:30.157Z,97791.61
2019-03-12T15:20:01.010Z,97794.19
2019-03-12T15:22:31.561Z,97799.19
2019-03-12T15:25:02.080Z,97799.58
2019-03-12T15:27:32.687Z,97795.56
2019-03-12T15:30:04.616Z,97796.38
2019-03-12T15:32:36.971Z,97791.61
2019-03-12T15:35:07.595Z,97791.59
2019-03-12T15:37:38.276Z,97782.07
2019-03-12T15:40:09.142Z,97777.46
2019-03-12T15:42:39.647Z,97777.87
2019-03-12T15:45:10.725Z,97783.41
2019-03-12T15:47:42.686Z,97786.36
2019-03-12T15:50:14.057Z,97788.55
2019-03-12T15:52:44.777Z,97784.71
2019-03-12T15:55:15.392Z,97789.70
2019-03-12T15:57:45.753Z,97791.75
2019-03-12T16:00:16.784Z,97798.66
2019-03-12T16:02:47.277Z,97798.95
2019-03-12T16:05:17.786Z,97797.23
2019-03-12T16:07:48.510Z,97799.53
2019-03-12T16:10:19.818Z,97807.82
2019-03-12T16:12:50.544Z,97815.04
2019-03-12T16:15:20.744Z,97822.11
2019-03-12T16:17:51.076Z,97824.08
2019-03-12T16:20:21.955Z,97832.67
2019-03-12T16:22:52.440Z,97832.64
2019-03-12T16:25:23.426Z,97828.03
2019-03-12T16:27:54.440Z,97838.74
2019-03-12T16:30:25.327Z,97837.68
2019-03-12T16:32:55.926Z,97852.80
2019-03-12T16:35:27.153Z,97857.55
2019-03-12T16:37:57.799Z,97865.53
2019-03-12T16:40:30.379Z,97862.93
2019-03-12T16:43:01.014Z,97863.72
2019-03-12T16:45:31.985Z,97880.67
2019-03-12T16:48:05.731Z,97873.17
2019-03-12T16:50:36.631Z,97873.63
2019-03-12T16:53:07.259Z,97879.21
2019-03-12T16:55:38.642Z,97879.86
2019-03-12T16:58:09.280Z,97886.70
2019-03-12T17:00:39.899Z,97898.47
2019-03-12T17:03:11.306Z,97900.66
2019-03-12T17:05:42.268Z,97908.30
2019-03-12T17:08:12.860Z,97915.13
2019-03-12T17:10:54.372Z,97919.91
2019-03-12T17:13:17.174Z,97931.94
2019-03-12T17:15:51.111Z,97934.34
2019-03-12T17:18:19.850Z,97931.90
2019-03-12T17:20:50.520Z,97940.25
2019-03-12T17:23:23.761Z,97934.28
2019-03-12T17:25:54.598Z,97936.04
2019-03-12T17:28:25.416Z,97939.03
2019-03-12T17:30:56.377Z,97936.64
2019-03-12T17:33:27.121Z,97945.80
2019-03-12T17:35:58.104Z,97957.89
2019-03-12T17:38:45.522Z,97959.27
2019-03-12T17:41:03.030Z,97959.11
2019-03-12T17:43:33.742Z,97960.53
2019-03-12T17:46:07.745Z,97968.54
2019-03-12T17:48:38.390Z,97969.45
2019-03-12T17:51:09.038Z,97970.77
2019-03-12T17:53:39.568Z,97976.61
2019-03-12T17:56:11.987Z,97979.83
2019-03-12T17:58:42.859Z,97986.94
2019-03-12T18:01:13.380Z,97986.75
2019-03-12T18:03:44.186Z,97995.38
2019-03-12T18:06:14.676Z,97998.34
2019-03-12T18:08:46.464Z,98002.45
2019-03-12T18:11:17.168Z,98000.38
2019-03-12T18:13:48.052Z,98011.09
2019-03-12T18:16:19.243Z,98016.77
2019-03-12T18:18:49.844Z,98016.27
2019-03-12T18:21:22.006Z,98029.88
2019-03-12T18:23:54.665Z,98019.30
2019-03-12T18:26:25.539Z,98028.33
2019-03-12T18:28:59.172Z,98031.72
2019-03-12T18:31:28.542Z,98038.84
2019-03-12T18:34:01.902Z,98040.45
2019-03-12T18:36:32.654Z,98040.09
2019-03-12T18:39:03.596Z,98041.38
2019-03-12T18:41:36.427Z,98044.13
2019-03-12T18:44:08.888Z,98052.30
2019-03-12T18:46:43.259Z,98049.62
2019-03-12T18:49:14.251Z,98054.20
2019-03-12T18:51:44.728Z,98052.89
2019-03-12T18:54:15.646Z,98054.82
2019-03-12T18:56:47.042Z,98060.27
2019-03-12T18:59:18.339Z,98063.36
2019-03-12T19:01:49.499Z,98068.26
2019-03-12T19:04:20.072Z,98067.48
2019-03-12T19:06:50.767Z,98076.30
2019-03-12T19:09:21.500Z,98082.41
2019-03-12T19:11:52.306Z,98085.86
2019-03-12T19:14:23.051Z,98086.75
2019-03-12T19:16:53.609Z,98086.34
2019-03-12T19:19:24.149Z,98093.72
2019-03-12T19:21:54.839Z,98095.55
2019-03-12T19:24:25.653Z,98093.80
2019-03-12T19:26:56.420Z,98096.45
2019-03-12T19:29:27.267Z,98098.98
2019-03-12T19:32:19.695Z,98101.50
2019-03-12T19:34:50.576Z,98113.17
2019-03-12T19:37:21.107Z,98111.46
2019-03-12T19:39:52.736Z,98116.47
2019-03-12T19:42:23.187Z,98119.77
2019-03-12T19:44:54.221Z,98118.84
2019-03-12T19:47:24.838Z,98132.33
2019-03-12T19:49:55.584Z,98124.56
2019-03-12T19:52:26.317Z,98128.41
2019-03-12T19:54:57.192Z,98133.61
2019-03-12T19:57:27.957Z,98135.85
2019-03-12T19:59:58.632Z,98145.92
2019-03-12T20:02:30.196Z,98151.47
2019-03-12T20:05:01.065Z,98151.98
2019-03-12T20:07:31.775Z,98158.57
2019-03-12T20:10:25.863Z,98153.42
2019-03-12T20:13:31.297Z,98151.70
2019-03-12T20:17:12.546Z,98154.70
2019-03-12T20:20:26.331Z,98157.29
2019-03-12T20:23:31.100Z,98152.14
2019-03-12T20:26:40.559Z,98157.43
2019-03-12T20:30:09.935Z,98154.83
2019-03-12T20:33:15.928Z,98155.25
2019-03-12T20:36:21.728Z,98157.00
2019-03-12T20:39:43.591Z,98155.76
2019-03-12T20:42:53.807Z,98154.52
2019-03-12T20:46:10.297Z,98155.25
2019-03-12T20:49:29.949Z,98155.25
2019-03-12T20:52:27.784Z,98155.28
2019-03-12T20:55:41.618Z,98157.06
2019-03-12T20:58:47.125Z,98163.91
2019-03-12T21:01:39.803Z,98153.57
2019-03-12T21:04:50.785Z,98158.42
2019-03-12T21:08:06.539Z,98151.53
2019-03-12T21:11:22.163Z,98151.08
2019-03-12T21:14:39.758Z,98153.64
2019-03-12T21:17:24.540Z,98151.38
2019-03-12T21:21:02.822Z,98140.51
2019-03-12T21:23:53.700Z,98143.97
2019-03-12T21:27:01.439Z,98146.56
2019-03-12T21:29:50.635Z,98142.14
2019-03-12T21:32:21.235Z,98140.46
2019-03-12T21:34:51.657Z,98141.28
2019-03-12T21:37:22.409Z,98139.21
2019-03-12T21:39:56.048Z,98145.80
2019-03-12T21:42:25.979Z,98143.67
2019-03-12T21:44:56.505Z,98138.94
2019-03-12T21:47:27.101Z,98138.94
2019-03-12T21:49:57.946Z,98136.00
2019-03-12T21:52:28.693Z,98143.41
2019-03-12T21:54:59.129Z,98138.68
2019-03-12T21:57:29.598Z,98133.92
2019-03-12T22:00:00.435Z,98129.64
2019-03-12T22:02:30.875Z,98131.81
2019-03-12T22:05:01.276Z,98135.66
2019-03-12T22:07:34.105Z,98137.39
2019-03-12T22:10:04.551Z,98127.91
2019-03-12T22:12:35.040Z,98124.95
2019-03-12T22:15:05.841Z,98130.12
2019-03-12T22:17:36.124Z,98120.19
2019-03-12T22:20:07.510Z,98132.80
2019-03-12T22:22:42.674Z,98127.59
2019-03-12T22:25:14.063Z,98121.52
2019-03-12T22:27:44.522Z,98123.59
2019-03-12T22:30:17.742Z,98121.44
2019-03-12T22:32:48.513Z,98117.13
2019-03-12T22:35:19.027Z,98116.25
2019-03-12T22:37:49.371Z,98117.98
2019-03-12T22:40:19.698Z,98122.73
2019-03-12T22:42:50.259Z,98114.95
2019-03-12T22:45:20.578Z,98116.70
2019-03-12T22:47:50.952Z,98125.31
2019-03-12T22:50:21.334Z,98121.44
2019-03-12T22:52:51.895Z,98121.88
2019-03-12T22:55:22.522Z,98115.86
2019-03-12T22:57:53.061Z,98118.41
2019-03-12T23:00:24.105Z,98118.84
2019-03-12T23:02:54.577Z,98118.44
2019-03-12T23:05:25.065Z,98116.30
2019-03-12T23:07:55.389Z,98118.39
2019-03-12T23:10:26.433Z,98120.91
2019-03-12T23:12:57.393Z,98123.09
2019-03-12T23:15:27.833Z,98117.47
2019-03-12T23:17:58.427Z,98124.01
2019-03-12T23:20:28.947Z,98116.59
2019-03-12T23:22:59.388Z,98121.34
2019-03-12T23:25:29.876Z,98119.22
2019-03-12T23:28:00.262Z,98113.58
2019-03-12T23:30:30.571Z,98124.36
2019-03-12T23:33:00.977Z,98118.31
2019-03-12T23:35:31.622Z,98119.94
2019-03-12T23:38:02.189Z,98119.98
2019-03-12T23:40:32.872Z,98115.17
2019-03-12T23:43:03.459Z,98119.17
2019-03-12T23:45:34.370Z,98111.17
2019-03-12T23:48:04.980Z,98108.11
2019-03-12T23:50:35.174Z,98119.63
2019-03-12T23:53:05.527Z,98114.77
2019-03-12T23:55:36.280Z,98123.94
2019-03-12T23:58:07.175Z,98122.20
